sensor_id;sensor_type;location;lat;lon;timestamp;temperature;humidity
1361;DHT22;674;45.552;-122.600;2023-04-30T00:01:58;26.70;1.00
1361;DHT22;674;45.552;-122.600;2023-04-30T00:04:26;26.70;1.00
1361;DHT22;674;45.552;-122.600;2023-04-30T00:06:55;26.70;1.00
1361;DHT22;674;45.552;-122.600;2023-04-30T00:09:24;26.80;1.00
1361;DHT22;674;45.552;-122.600;2023-04-30T00:11:52;26.80;1.00
1361;DHT22;674;45.552;-122.600;2023-04-30T00:14:21;26.70;1.00
1361;DHT22;674;45.552;-122.600;2023-04-30T00:16:49;26.60;1.00
1361;DHT22;674;45.552;-122.600;2023-04-30T00:19:18;26.70;1.00
1361;DHT22;674;45.552;-122.600;2023-04-30T00:21:46;26.70;1.00
1361;DHT22;674;45.552;-122.600;2023-04-30T00:24:14;26.70;1.00
1361;DHT22;674;45.552;-122.600;2023-04-30T00:26:43;26.80;1.00
1361;DHT22;674;45.552;-122.600;2023-04-30T00:29:11;26.70;1.00
1361;DHT22;674;45.552;-122.600;2023-04-30T00:31:40;26.80;1.00
1361;DHT22;674;45.552;-122.600;2023-04-30T00:34:08;26.70;1.00
1361;DHT22;674;45.552;-122.600;2023-04-30T00:36:37;26.70;1.00
1361;DHT22;674;45.552;-122.600;2023-04-30T00:39:07;26.70;1.00
1361;DHT22;674;45.552;-122.600;2023-04-30T00:41:36;26.60;1.00
1361;DHT22;674;45.552;-122.600;2023-04-30T00:44:04;26.60;1.00
1361;DHT22;674;45.552;-122.600;2023-04-30T00:46:33;26.70;1.00
1361;DHT22;674;45.552;-122.600;2023-04-30T00:49:01;26.60;1.00
1361;DHT22;674;45.552;-122.600;2023-04-30T00:51:32;26.60;1.00
1361;DHT22;674;45.552;-122.600;2023-04-30T00:54:01;26.50;1.00
1361;DHT22;674;45.552;-122.600;2023-04-30T00:56:30;26.60;1.00
1361;DHT22;674;45.552;-122.600;2023-04-30T00:58:59;26.60;1.00
1361;DHT22;674;45.552;-122.600;2023-04-30T01:01:28;26.50;1.00
1361;DHT22;674;45.552;-122.600;2023-04-30T01:03:57;26.50;1.00
1361;DHT22;674;45.552;-122.600;2023-04-30T01:06:26;26.50;1.00
1361;DHT22;674;45.552;-122.600;2023-04-30T01:08:55;26.40;1.00
1361;DHT22;674;45.552;-122.600;2023-04-30T01:14:32;26.30;1.00
1361;DHT22;674;45.552;-122.600;2023-04-30T01:17:33;26.30;1.00
1361;DHT22;674;45.552;-122.600;2023-04-30T01:20:02;26.20;1.00
1361;DHT22;674;45.552;-122.600;2023-04-30T01:28:11;26.10;1.00
1361;DHT22;674;45.552;-122.600;2023-04-30T01:30:41;26.10;1.00
1361;DHT22;674;45.552;-122.600;2023-04-30T01:33:13;26.00;1.00
1361;DHT22;674;45.552;-122.600;2023-04-30T01:51:42;25.40;1.00
1361;DHT22;674;45.552;-122.600;2023-04-30T01:54:41;25.40;1.00
1361;DHT22;674;45.552;-122.600;2023-04-30T01:57:20;25.30;1.00
1361;DHT22;674;45.552;-122.600;2023-04-30T01:59:50;25.30;1.00
1361;DHT22;674;45.552;-122.600;2023-04-30T02:02:19;25.20;1.00
1361;DHT22;674;45.552;-122.600;2023-04-30T02:04:48;25.20;1.00
1361;DHT22;674;45.552;-122.600;2023-04-30T02:07:56;25.00;1.00
1361;DHT22;674;45.552;-122.600;2023-04-30T02:10:24;24.90;1.00
1361;DHT22;674;45.552;-122.600;2023-04-30T02:12:54;24.90;1.00
1361;DHT22;674;45.552;-122.600;2023-04-30T02:15:22;24.80;1.00
1361;DHT22;674;45.552;-122.600;2023-04-30T02:17:51;24.60;1.00
1361;DHT22;674;45.552;-122.600;2023-04-30T02:20:19;24.70;1.00
1361;DHT22;674;45.552;-122.600;2023-04-30T02:22:48;24.70;1.00
1361;DHT22;674;45.552;-122.600;2023-04-30T02:25:16;24.70;1.00
1361;DHT22;674;45.552;-122.600;2023-04-30T02:27:45;24.60;1.00
1361;DHT22;674;45.552;-122.600;2023-04-30T02:30:13;24.50;1.00
1361;DHT22;674;45.552;-122.600;2023-04-30T02:32:45;24.50;1.00
1361;DHT22;674;45.552;-122.600;2023-04-30T02:35:13;24.30;1.00
1361;DHT22;674;45.552;-122.600;2023-04-30T02:37:42;24.40;1.00
1361;DHT22;674;45.552;-122.600;2023-04-30T02:40:11;24.30;1.00
1361;DHT22;674;45.552;-122.600;2023-04-30T02:42:39;24.10;1.00
1361;DHT22;674;45.552;-122.600;2023-04-30T02:45:08;24.00;1.00
1361;DHT22;674;45.552;-122.600;2023-04-30T02:47:36;23.90;1.00
1361;DHT22;674;45.552;-122.600;2023-04-30T02:50:05;23.80;1.00
1361;DHT22;674;45.552;-122.600;2023-04-30T02:52:35;23.70;1.00
1361;DHT22;674;45.552;-122.600;2023-04-30T02:55:03;23.70;1.00
1361;DHT22;674;45.552;-122.600;2023-04-30T02:57:32;23.60;1.00
1361;DHT22;674;45.552;-122.600;2023-04-30T03:00:00;23.50;1.00
1361;DHT22;674;45.552;-122.600;2023-04-30T03:02:29;23.40;1.00
1361;DHT22;674;45.552;-122.600;2023-04-30T03:04:58;23.20;1.00
1361;DHT22;674;45.552;-122.600;2023-04-30T03:07:27;23.20;1.00
1361;DHT22;674;45.552;-122.600;2023-04-30T03:09:55;23.10;1.00
1361;DHT22;674;45.552;-122.600;2023-04-30T03:12:24;22.80;1.00
1361;DHT22;674;45.552;-122.600;2023-04-30T03:14:52;22.70;1.00
1361;DHT22;674;45.552;-122.600;2023-04-30T03:17:20;22.70;1.00
1361;DHT22;674;45.552;-122.600;2023-04-30T03:19:50;22.60;1.00
1361;DHT22;674;45.552;-122.600;2023-04-30T03:22:19;22.40;1.00
1361;DHT22;674;45.552;-122.600;2023-04-30T03:24:50;22.30;1.00
1361;DHT22;674;45.552;-122.600;2023-04-30T03:27:18;22.10;1.00
1361;DHT22;674;45.552;-122.600;2023-04-30T03:29:47;22.00;1.00
1361;DHT22;674;45.552;-122.600;2023-04-30T03:32:16;21.90;1.00
1361;DHT22;674;45.552;-122.600;2023-04-30T03:34:44;21.70;1.00
1361;DHT22;674;45.552;-122.600;2023-04-30T03:37:13;21.50;1.00
1361;DHT22;674;45.552;-122.600;2023-04-30T03:39:41;21.30;1.00
1361;DHT22;674;45.552;-122.600;2023-04-30T03:42:10;21.00;1.00
1361;DHT22;674;45.552;-122.600;2023-04-30T03:44:38;20.90;1.00
1361;DHT22;674;45.552;-122.600;2023-04-30T03:47:07;20.90;1.00
1361;DHT22;674;45.552;-122.600;2023-04-30T03:49:35;20.80;1.00
1361;DHT22;674;45.552;-122.600;2023-04-30T03:52:04;20.70;1.00
1361;DHT22;674;45.552;-122.600;2023-04-30T03:54:33;20.70;1.00
1361;DHT22;674;45.552;-122.600;2023-04-30T03:57:02;20.60;1.00
1361;DHT22;674;45.552;-122.600;2023-04-30T03:59:31;20.60;1.00
1361;DHT22;674;45.552;-122.600;2023-04-30T04:02:00;20.50;1.00
1361;DHT22;674;45.552;-122.600;2023-04-30T04:04:29;20.50;1.00
1361;DHT22;674;45.552;-122.600;2023-04-30T04:06:58;20.40;1.00
1361;DHT22;674;45.552;-122.600;2023-04-30T04:09:26;20.30;1.00
1361;DHT22;674;45.552;-122.600;2023-04-30T04:11:55;20.30;1.00
1361;DHT22;674;45.552;-122.600;2023-04-30T04:14:24;20.20;1.00
1361;DHT22;674;45.552;-122.600;2023-04-30T04:16:53;20.20;1.00
1361;DHT22;674;45.552;-122.600;2023-04-30T04:19:21;20.20;1.00
1361;DHT22;674;45.552;-122.600;2023-04-30T04:21:49;20.10;1.00
1361;DHT22;674;45.552;-122.600;2023-04-30T04:24:18;19.90;1.00
1361;DHT22;674;45.552;-122.600;2023-04-30T04:26:47;19.80;1.00
1361;DHT22;674;45.552;-122.600;2023-04-30T04:29:15;19.70;1.00
1361;DHT22;674;45.552;-122.600;2023-04-30T04:31:44;19.60;1.00
1361;DHT22;674;45.552;-122.600;2023-04-30T04:34:12;19.50;1.00
1361;DHT22;674;45.552;-122.600;2023-04-30T04:36:41;19.40;1.00
1361;DHT22;674;45.552;-122.600;2023-04-30T04:39:10;19.30;1.00
1361;DHT22;674;45.552;-122.600;2023-04-30T04:41:38;19.30;1.00
1361;DHT22;674;45.552;-122.600;2023-04-30T04:44:07;19.20;1.00
1361;DHT22;674;45.552;-122.600;2023-04-30T04:46:36;19.10;1.00
1361;DHT22;674;45.552;-122.600;2023-04-30T04:49:05;19.00;1.00
1361;DHT22;674;45.552;-122.600;2023-04-30T04:51:33;18.90;1.00
1361;DHT22;674;45.552;-122.600;2023-04-30T04:54:02;18.90;1.00
1361;DHT22;674;45.552;-122.600;2023-04-30T04:56:31;18.80;1.00
1361;DHT22;674;45.552;-122.600;2023-04-30T04:59:00;18.70;1.00
1361;DHT22;674;45.552;-122.600;2023-04-30T05:01:29;18.70;1.00
1361;DHT22;674;45.552;-122.600;2023-04-30T05:03:58;18.50;1.00
1361;DHT22;674;45.552;-122.600;2023-04-30T05:06:26;18.40;1.00
1361;DHT22;674;45.552;-122.600;2023-04-30T05:08:55;18.30;1.00
1361;DHT22;674;45.552;-122.600;2023-04-30T05:11:24;18.20;1.00
1361;DHT22;674;45.552;-122.600;2023-04-30T05:13:52;18.20;1.00
1361;DHT22;674;45.552;-122.600;2023-04-30T05:16:21;18.30;1.00
1361;DHT22;674;45.552;-122.600;2023-04-30T05:18:49;18.10;1.00
1361;DHT22;674;45.552;-122.600;2023-04-30T05:21:17;18.00;1.00
1361;DHT22;674;45.552;-122.600;2023-04-30T05:23:46;17.80;1.00
1361;DHT22;674;45.552;-122.600;2023-04-30T05:26:14;17.50;1.00
1361;DHT22;674;45.552;-122.600;2023-04-30T05:28:43;17.40;1.00
1361;DHT22;674;45.552;-122.600;2023-04-30T05:31:12;17.40;1.00
1361;DHT22;674;45.552;-122.600;2023-04-30T05:33:40;17.40;1.00
1361;DHT22;674;45.552;-122.600;2023-04-30T05:36:09;17.40;1.00
1361;DHT22;674;45.552;-122.600;2023-04-30T05:38:38;17.40;1.00
1361;DHT22;674;45.552;-122.600;2023-04-30T05:41:08;17.30;1.00
1361;DHT22;674;45.552;-122.600;2023-04-30T05:43:37;17.20;1.00
1361;DHT22;674;45.552;-122.600;2023-04-30T05:46:05;17.00;1.00
1361;DHT22;674;45.552;-122.600;2023-04-30T05:48:34;16.90;1.00
1361;DHT22;674;45.552;-122.600;2023-04-30T05:51:02;16.90;1.00
1361;DHT22;674;45.552;-122.600;2023-04-30T05:53:32;16.90;1.00
1361;DHT22;674;45.552;-122.600;2023-04-30T05:56:00;16.80;1.00
1361;DHT22;674;45.552;-122.600;2023-04-30T05:58:29;16.80;1.00
1361;DHT22;674;45.552;-122.600;2023-04-30T06:00:58;16.80;1.00
1361;DHT22;674;45.552;-122.600;2023-04-30T06:03:26;16.70;1.00
1361;DHT22;674;45.552;-122.600;2023-04-30T06:05:54;16.40;1.00
1361;DHT22;674;45.552;-122.600;2023-04-30T06:08:23;16.10;1.00
1361;DHT22;674;45.552;-122.600;2023-04-30T06:10:52;16.20;1.00
1361;DHT22;674;45.552;-122.600;2023-04-30T06:13:21;16.30;1.00
1361;DHT22;674;45.552;-122.600;2023-04-30T06:15:49;16.20;1.00
1361;DHT22;674;45.552;-122.600;2023-04-30T06:18:17;16.00;1.00
1361;DHT22;674;45.552;-122.600;2023-04-30T06:20:47;15.80;1.00
1361;DHT22;674;45.552;-122.600;2023-04-30T06:23:15;15.80;1.00
1361;DHT22;674;45.552;-122.600;2023-04-30T06:25:44;15.90;1.00
1361;DHT22;674;45.552;-122.600;2023-04-30T06:28:12;16.00;1.00
1361;DHT22;674;45.552;-122.600;2023-04-30T06:30:41;15.90;1.00
1361;DHT22;674;45.552;-122.600;2023-04-30T06:33:09;15.70;1.00
1361;DHT22;674;45.552;-122.600;2023-04-30T06:35:38;15.40;1.00
1361;DHT22;674;45.552;-122.600;2023-04-30T06:38:07;15.20;1.00
1361;DHT22;674;45.552;-122.600;2023-04-30T06:40:35;15.10;1.00
1361;DHT22;674;45.552;-122.600;2023-04-30T06:43:04;15.00;1.00
1361;DHT22;674;45.552;-122.600;2023-04-30T06:45:33;14.90;1.00
1361;DHT22;674;45.552;-122.600;2023-04-30T06:48:02;14.90;1.00
1361;DHT22;674;45.552;-122.600;2023-04-30T06:50:30;14.90;1.00
1361;DHT22;674;45.552;-122.600;2023-04-30T06:52:59;14.90;1.00
1361;DHT22;674;45.552;-122.600;2023-04-30T06:55:28;14.80;1.00
1361;DHT22;674;45.552;-122.600;2023-04-30T06:57:56;14.70;1.00
1361;DHT22;674;45.552;-122.600;2023-04-30T07:00:25;14.70;1.00
1361;DHT22;674;45.552;-122.600;2023-04-30T07:02:53;14.80;1.00
1361;DHT22;674;45.552;-122.600;2023-04-30T07:05:23;14.80;1.00
1361;DHT22;674;45.552;-122.600;2023-04-30T07:07:52;14.90;1.00
1361;DHT22;674;45.552;-122.600;2023-04-30T07:10:20;15.00;1.00
1361;DHT22;674;45.552;-122.600;2023-04-30T07:12:49;15.00;1.00
1361;DHT22;674;45.552;-122.600;2023-04-30T07:15:17;15.00;1.00
1361;DHT22;674;45.552;-122.600;2023-04-30T07:17:46;15.00;1.00
1361;DHT22;674;45.552;-122.600;2023-04-30T07:20:14;15.00;1.00
1361;DHT22;674;45.552;-122.600;2023-04-30T07:22:43;15.00;1.00
1361;DHT22;674;45.552;-122.600;2023-04-30T07:25:13;15.00;1.00
1361;DHT22;674;45.552;-122.600;2023-04-30T07:27:41;14.90;1.00
1361;DHT22;674;45.552;-122.600;2023-04-30T07:30:10;14.40;1.00
1361;DHT22;674;45.552;-122.600;2023-04-30T07:32:38;14.30;1.00
1361;DHT22;674;45.552;-122.600;2023-04-30T07:35:08;14.20;1.00
1361;DHT22;674;45.552;-122.600;2023-04-30T07:37:37;14.30;1.00
1361;DHT22;674;45.552;-122.600;2023-04-30T07:40:08;14.20;1.00
1361;DHT22;674;45.552;-122.600;2023-04-30T07:42:51;14.00;1.00
1361;DHT22;674;45.552;-122.600;2023-04-30T07:45:19;14.10;1.00
1361;DHT22;674;45.552;-122.600;2023-04-30T07:47:48;14.10;1.00
1361;DHT22;674;45.552;-122.600;2023-04-30T07:50:16;14.00;1.00
1361;DHT22;674;45.552;-122.600;2023-04-30T07:52:48;13.80;1.00
1361;DHT22;674;45.552;-122.600;2023-04-30T07:55:17;13.70;1.00
1361;DHT22;674;45.552;-122.600;2023-04-30T07:57:46;13.50;1.00
1361;DHT22;674;45.552;-122.600;2023-04-30T08:00:14;13.40;1.00
1361;DHT22;674;45.552;-122.600;2023-04-30T08:02:44;13.40;1.00
1361;DHT22;674;45.552;-122.600;2023-04-30T08:05:15;13.30;1.00
1361;DHT22;674;45.552;-122.600;2023-04-30T08:07:44;13.30;1.00
1361;DHT22;674;45.552;-122.600;2023-04-30T08:10:12;13.30;1.00
1361;DHT22;674;45.552;-122.600;2023-04-30T08:12:41;13.10;1.00
1361;DHT22;674;45.552;-122.600;2023-04-30T08:15:10;13.10;1.00
1361;DHT22;674;45.552;-122.600;2023-04-30T08:17:38;13.10;1.00
1361;DHT22;674;45.552;-122.600;2023-04-30T08:20:07;13.10;1.00
1361;DHT22;674;45.552;-122.600;2023-04-30T08:22:36;13.20;1.00
1361;DHT22;674;45.552;-122.600;2023-04-30T08:25:05;13.10;1.00
1361;DHT22;674;45.552;-122.600;2023-04-30T08:27:33;13.00;1.00
1361;DHT22;674;45.552;-122.600;2023-04-30T08:30:02;13.00;1.00
1361;DHT22;674;45.552;-122.600;2023-04-30T08:32:32;13.00;1.00
1361;DHT22;674;45.552;-122.600;2023-04-30T08:35:05;13.10;1.00
1361;DHT22;674;45.552;-122.600;2023-04-30T08:37:34;12.90;1.00
1361;DHT22;674;45.552;-122.600;2023-04-30T08:40:03;12.90;1.00
1361;DHT22;674;45.552;-122.600;2023-04-30T08:42:35;12.70;1.00
1361;DHT22;674;45.552;-122.600;2023-04-30T08:45:04;12.70;1.00
1361;DHT22;674;45.552;-122.600;2023-04-30T08:47:34;12.70;1.00
1361;DHT22;674;45.552;-122.600;2023-04-30T08:50:04;12.40;1.00
1361;DHT22;674;45.552;-122.600;2023-04-30T08:52:34;12.50;1.00
1361;DHT22;674;45.552;-122.600;2023-04-30T08:55:06;12.50;1.00
1361;DHT22;674;45.552;-122.600;2023-04-30T08:57:36;12.50;1.00
1361;DHT22;674;45.552;-122.600;2023-04-30T09:00:06;12.30;1.00
1361;DHT22;674;45.552;-122.600;2023-04-30T09:02:37;12.30;1.00
1361;DHT22;674;45.552;-122.600;2023-04-30T09:05:11;12.30;1.00
1361;DHT22;674;45.552;-122.600;2023-04-30T09:07:42;12.40;1.00
1361;DHT22;674;45.552;-122.600;2023-04-30T09:10:32;12.10;1.00
1361;DHT22;674;45.552;-122.600;2023-04-30T09:13:06;12.00;1.00
1361;DHT22;674;45.552;-122.600;2023-04-30T09:15:37;11.90;1.00
1361;DHT22;674;45.552;-122.600;2023-04-30T09:18:16;12.00;1.00
1361;DHT22;674;45.552;-122.600;2023-04-30T09:20:57;11.90;1.00
1361;DHT22;674;45.552;-122.600;2023-04-30T09:23:28;11.90;1.00
1361;DHT22;674;45.552;-122.600;2023-04-30T09:25:57;11.90;1.00
1361;DHT22;674;45.552;-122.600;2023-04-30T09:28:27;11.80;1.00
1361;DHT22;674;45.552;-122.600;2023-04-30T09:30:56;11.80;1.00
1361;DHT22;674;45.552;-122.600;2023-04-30T09:33:25;11.80;1.00
1361;DHT22;674;45.552;-122.600;2023-04-30T09:35:53;11.80;1.00
1361;DHT22;674;45.552;-122.600;2023-04-30T09:38:27;11.80;1.00
1361;DHT22;674;45.552;-122.600;2023-04-30T09:41:00;11.90;1.00
1361;DHT22;674;45.552;-122.600;2023-04-30T09:43:29;11.90;1.00
1361;DHT22;674;45.552;-122.600;2023-04-30T09:45:59;12.00;1.00
1361;DHT22;674;45.552;-122.600;2023-04-30T09:48:27;12.00;1.00
1361;DHT22;674;45.552;-122.600;2023-04-30T09:50:56;12.00;1.00
1361;DHT22;674;45.552;-122.600;2023-04-30T09:53:25;12.00;1.00
1361;DHT22;674;45.552;-122.600;2023-04-30T09:55:57;11.90;1.00
1361;DHT22;674;45.552;-122.600;2023-04-30T09:58:31;12.00;1.00
1361;DHT22;674;45.552;-122.600;2023-04-30T10:01:07;12.00;1.00
1361;DHT22;674;45.552;-122.600;2023-04-30T10:03:42;11.90;1.00
1361;DHT22;674;45.552;-122.600;2023-04-30T10:06:13;12.00;1.00
1361;DHT22;674;45.552;-122.600;2023-04-30T10:08:46;12.00;1.00
1361;DHT22;674;45.552;-122.600;2023-04-30T10:11:19;12.00;1.00
1361;DHT22;674;45.552;-122.600;2023-04-30T10:17:02;12.10;1.00
1361;DHT22;674;45.552;-122.600;2023-04-30T10:19:38;12.10;1.00
1361;DHT22;674;45.552;-122.600;2023-04-30T10:22:08;12.10;1.00
1361;DHT22;674;45.552;-122.600;2023-04-30T10:24:37;12.10;1.00
1361;DHT22;674;45.552;-122.600;2023-04-30T10:27:06;12.10;1.00
1361;DHT22;674;45.552;-122.600;2023-04-30T10:29:35;12.00;1.00
1361;DHT22;674;45.552;-122.600;2023-04-30T10:32:04;12.00;1.00
1361;DHT22;674;45.552;-122.600;2023-04-30T10:34:54;11.90;1.00
1361;DHT22;674;45.552;-122.600;2023-04-30T10:38:08;11.90;1.00
1361;DHT22;674;45.552;-122.600;2023-04-30T10:40:28;11.80;1.00
1361;DHT22;674;45.552;-122.600;2023-04-30T10:42:58;11.80;1.00
1361;DHT22;674;45.552;-122.600;2023-04-30T10:45:37;11.80;1.00
1361;DHT22;674;45.552;-122.600;2023-04-30T10:48:06;11.80;1.00
1361;DHT22;674;45.552;-122.600;2023-04-30T10:50:44;11.90;1.00
1361;DHT22;674;45.552;-122.600;2023-04-30T10:53:16;11.90;1.00
1361;DHT22;674;45.552;-122.600;2023-04-30T10:56:04;11.90;1.00
1361;DHT22;674;45.552;-122.600;2023-04-30T10:58:37;11.90;1.00
1361;DHT22;674;45.552;-122.600;2023-04-30T11:01:12;11.90;1.00
1361;DHT22;674;45.552;-122.600;2023-04-30T11:03:43;11.90;1.00
1361;DHT22;674;45.552;-122.600;2023-04-30T11:09:36;12.00;1.00
1361;DHT22;674;45.552;-122.600;2023-04-30T11:12:14;11.90;1.00
1361;DHT22;674;45.552;-122.600;2023-04-30T11:14:44;11.90;1.00
1361;DHT22;674;45.552;-122.600;2023-04-30T11:17:21;11.90;1.00
1361;DHT22;674;45.552;-122.600;2023-04-30T11:19:51;11.80;1.00
1361;DHT22;674;45.552;-122.600;2023-04-30T11:22:23;11.80;1.00
1361;DHT22;674;45.552;-122.600;2023-04-30T11:27:28;11.80;1.00
1361;DHT22;674;45.552;-122.600;2023-04-30T11:29:57;11.70;1.00
1361;DHT22;674;45.552;-122.600;2023-04-30T11:32:32;11.80;1.00
1361;DHT22;674;45.552;-122.600;2023-04-30T11:35:04;11.80;1.00
1361;DHT22;674;45.552;-122.600;2023-04-30T11:37:35;11.70;1.00
1361;DHT22;674;45.552;-122.600;2023-04-30T11:40:12;11.60;1.00
1361;DHT22;674;45.552;-122.600;2023-04-30T11:42:42;11.60;1.00
1361;DHT22;674;45.552;-122.600;2023-04-30T11:45:16;11.60;1.00
1361;DHT22;674;45.552;-122.600;2023-04-30T11:47:46;11.60;1.00
1361;DHT22;674;45.552;-122.600;2023-04-30T11:50:20;11.60;1.00
1361;DHT22;674;45.552;-122.600;2023-04-30T11:52:55;11.30;1.00
1361;DHT22;674;45.552;-122.600;2023-04-30T11:55:26;11.40;1.00
1361;DHT22;674;45.552;-122.600;2023-04-30T11:57:56;11.30;1.00
1361;DHT22;674;45.552;-122.600;2023-04-30T12:00:28;11.20;1.00
1361;DHT22;674;45.552;-122.600;2023-04-30T12:02:59;11.10;1.00
1361;DHT22;674;45.552;-122.600;2023-04-30T12:05:28;11.00;1.00
1361;DHT22;674;45.552;-122.600;2023-04-30T12:08:04;11.20;1.00
1361;DHT22;674;45.552;-122.600;2023-04-30T12:10:36;11.30;1.00
1361;DHT22;674;45.552;-122.600;2023-04-30T12:13:04;11.40;1.00
1361;DHT22;674;45.552;-122.600;2023-04-30T12:15:33;11.30;1.00
1361;DHT22;674;45.552;-122.600;2023-04-30T12:18:11;11.30;1.00
1361;DHT22;674;45.552;-122.600;2023-04-30T12:20:43;11.30;1.00
1361;DHT22;674;45.552;-122.600;2023-04-30T12:23:11;11.40;1.00
1361;DHT22;674;45.552;-122.600;2023-04-30T12:25:41;11.40;1.00
1361;DHT22;674;45.552;-122.600;2023-04-30T12:28:10;11.60;1.00
1361;DHT22;674;45.552;-122.600;2023-04-30T12:30:41;11.70;1.00
1361;DHT22;674;45.552;-122.600;2023-04-30T12:33:10;11.70;1.00
1361;DHT22;674;45.552;-122.600;2023-04-30T12:35:42;11.70;1.00
1361;DHT22;674;45.552;-122.600;2023-04-30T12:38:15;11.80;1.00
1361;DHT22;674;45.552;-122.600;2023-04-30T12:40:48;11.80;1.00
1361;DHT22;674;45.552;-122.600;2023-04-30T12:43:17;11.70;1.00
1361;DHT22;674;45.552;-122.600;2023-04-30T12:45:49;11.70;1.00
1361;DHT22;674;45.552;-122.600;2023-04-30T12:48:23;11.80;1.00
1361;DHT22;674;45.552;-122.600;2023-04-30T12:51:00;11.90;1.00
1361;DHT22;674;45.552;-122.600;2023-04-30T12:53:30;11.90;1.00
1361;DHT22;674;45.552;-122.600;2023-04-30T12:56:12;11.90;1.00
1361;DHT22;674;45.552;-122.600;2023-04-30T12:58:44;12.10;1.00
1361;DHT22;674;45.552;-122.600;2023-04-30T13:01:19;12.10;1.00
1361;DHT22;674;45.552;-122.600;2023-04-30T13:03:48;12.20;1.00
1361;DHT22;674;45.552;-122.600;2023-04-30T13:06:18;12.10;1.00
1361;DHT22;674;45.552;-122.600;2023-04-30T13:08:47;12.10;1.00
1361;DHT22;674;45.552;-122.600;2023-04-30T13:11:25;12.10;1.00
1361;DHT22;674;45.552;-122.600;2023-04-30T13:13:54;12.20;1.00
1361;DHT22;674;45.552;-122.600;2023-04-30T13:16:23;12.40;1.00
1361;DHT22;674;45.552;-122.600;2023-04-30T13:18:52;12.20;1.00
1361;DHT22;674;45.552;-122.600;2023-04-30T13:21:21;12.20;1.00
1361;DHT22;674;45.552;-122.600;2023-04-30T13:23:51;12.20;1.00
1361;DHT22;674;45.552;-122.600;2023-04-30T13:26:22;12.20;1.00
1361;DHT22;674;45.552;-122.600;2023-04-30T13:28:51;12.20;1.00
1361;DHT22;674;45.552;-122.600;2023-04-30T13:31:19;12.30;1.00
1361;DHT22;674;45.552;-122.600;2023-04-30T13:33:49;12.20;1.00
1361;DHT22;674;45.552;-122.600;2023-04-30T13:36:17;12.20;1.00
1361;DHT22;674;45.552;-122.600;2023-04-30T13:38:46;12.20;1.00
1361;DHT22;674;45.552;-122.600;2023-04-30T13:41:15;12.40;1.00
1361;DHT22;674;45.552;-122.600;2023-04-30T13:43:43;12.40;1.00
1361;DHT22;674;45.552;-122.600;2023-04-30T13:46:13;12.40;1.00
1361;DHT22;674;45.552;-122.600;2023-04-30T13:48:42;12.60;1.00
1361;DHT22;674;45.552;-122.600;2023-04-30T13:51:10;12.50;1.00
1361;DHT22;674;45.552;-122.600;2023-04-30T13:53:39;12.70;1.00
1361;DHT22;674;45.552;-122.600;2023-04-30T13:56:07;12.80;1.00
1361;DHT22;674;45.552;-122.600;2023-04-30T13:58:37;12.80;1.00
1361;DHT22;674;45.552;-122.600;2023-04-30T14:01:05;12.60;1.00
1361;DHT22;674;45.552;-122.600;2023-04-30T14:03:34;12.70;1.00
1361;DHT22;674;45.552;-122.600;2023-04-30T14:06:03;12.80;1.00
1361;DHT22;674;45.552;-122.600;2023-04-30T14:08:32;13.00;1.00
1361;DHT22;674;45.552;-122.600;2023-04-30T14:11:01;13.10;1.00
1361;DHT22;674;45.552;-122.600;2023-04-30T14:13:29;13.10;1.00
1361;DHT22;674;45.552;-122.600;2023-04-30T14:15:58;13.10;1.00
1361;DHT22;674;45.552;-122.600;2023-04-30T14:18:26;13.00;1.00
1361;DHT22;674;45.552;-122.600;2023-04-30T14:20:55;13.20;1.00
1361;DHT22;674;45.552;-122.600;2023-04-30T14:23:23;13.00;1.00
1361;DHT22;674;45.552;-122.600;2023-04-30T14:25:52;13.20;1.00
1361;DHT22;674;45.552;-122.600;2023-04-30T14:28:21;13.30;1.00
1361;DHT22;674;45.552;-122.600;2023-04-30T14:30:49;13.30;1.00
1361;DHT22;674;45.552;-122.600;2023-04-30T14:33:18;13.40;1.00
1361;DHT22;674;45.552;-122.600;2023-04-30T14:35:46;13.50;1.00
1361;DHT22;674;45.552;-122.600;2023-04-30T14:38:15;13.50;1.00
1361;DHT22;674;45.552;-122.600;2023-04-30T14:40:43;13.40;1.00
1361;DHT22;674;45.552;-122.600;2023-04-30T14:43:12;13.50;1.00
1361;DHT22;674;45.552;-122.600;2023-04-30T14:45:40;13.60;1.00
1361;DHT22;674;45.552;-122.600;2023-04-30T14:48:09;13.70;1.00
1361;DHT22;674;45.552;-122.600;2023-04-30T14:50:38;13.80;1.00
1361;DHT22;674;45.552;-122.600;2023-04-30T14:53:06;13.50;1.00
1361;DHT22;674;45.552;-122.600;2023-04-30T14:55:37;13.60;1.00
1361;DHT22;674;45.552;-122.600;2023-04-30T14:58:06;13.50;1.00
1361;DHT22;674;45.552;-122.600;2023-04-30T15:00:34;13.60;1.00
1361;DHT22;674;45.552;-122.600;2023-04-30T15:03:03;13.70;1.00
1361;DHT22;674;45.552;-122.600;2023-04-30T15:05:32;13.70;1.00
1361;DHT22;674;45.552;-122.600;2023-04-30T15:08:00;13.90;1.00
1361;DHT22;674;45.552;-122.600;2023-04-30T15:10:29;13.50;1.00
1361;DHT22;674;45.552;-122.600;2023-04-30T15:12:57;13.70;1.00
1361;DHT22;674;45.552;-122.600;2023-04-30T15:15:26;13.90;1.00
1361;DHT22;674;45.552;-122.600;2023-04-30T15:17:57;14.10;1.00
1361;DHT22;674;45.552;-122.600;2023-04-30T15:20:26;14.20;1.00
1361;DHT22;674;45.552;-122.600;2023-04-30T15:22:54;13.90;1.00
1361;DHT22;674;45.552;-122.600;2023-04-30T15:25:22;13.90;1.00
1361;DHT22;674;45.552;-122.600;2023-04-30T15:27:51;14.00;1.00
1361;DHT22;674;45.552;-122.600;2023-04-30T15:30:20;13.60;1.00
1361;DHT22;674;45.552;-122.600;2023-04-30T15:32:48;13.30;1.00
1361;DHT22;674;45.552;-122.600;2023-04-30T15:35:17;13.70;1.00
1361;DHT22;674;45.552;-122.600;2023-04-30T15:37:46;14.10;1.00
1361;DHT22;674;45.552;-122.600;2023-04-30T15:40:14;14.30;1.00
1361;DHT22;674;45.552;-122.600;2023-04-30T15:42:43;14.50;1.00
1361;DHT22;674;45.552;-122.600;2023-04-30T15:45:11;14.50;1.00
1361;DHT22;674;45.552;-122.600;2023-04-30T15:47:40;14.30;1.00
1361;DHT22;674;45.552;-122.600;2023-04-30T15:50:09;14.20;1.00
1361;DHT22;674;45.552;-122.600;2023-04-30T15:52:37;14.50;1.00
1361;DHT22;674;45.552;-122.600;2023-04-30T15:55:07;14.70;1.00
1361;DHT22;674;45.552;-122.600;2023-04-30T15:57:35;14.90;1.00
1361;DHT22;674;45.552;-122.600;2023-04-30T16:00:05;14.70;1.00
1361;DHT22;674;45.552;-122.600;2023-04-30T16:02:33;14.70;1.00
1361;DHT22;674;45.552;-122.600;2023-04-30T16:05:03;14.60;1.00
1361;DHT22;674;45.552;-122.600;2023-04-30T16:07:32;14.50;1.00
1361;DHT22;674;45.552;-122.600;2023-04-30T16:10:02;14.80;1.00
1361;DHT22;674;45.552;-122.600;2023-04-30T16:12:30;14.80;1.00
1361;DHT22;674;45.552;-122.600;2023-04-30T16:14:59;15.00;1.00
1361;DHT22;674;45.552;-122.600;2023-04-30T16:17:27;14.50;1.00
1361;DHT22;674;45.552;-122.600;2023-04-30T16:19:58;14.50;1.00
1361;DHT22;674;45.552;-122.600;2023-04-30T16:22:27;14.30;1.00
1361;DHT22;674;45.552;-122.600;2023-04-30T16:24:57;14.20;1.00
1361;DHT22;674;45.552;-122.600;2023-04-30T16:27:25;14.50;1.00
1361;DHT22;674;45.552;-122.600;2023-04-30T16:29:53;14.60;1.00
1361;DHT22;674;45.552;-122.600;2023-04-30T16:32:23;14.80;1.00
1361;DHT22;674;45.552;-122.600;2023-04-30T16:34:51;15.00;1.00
1361;DHT22;674;45.552;-122.600;2023-04-30T16:37:19;15.00;1.00